EPPO

Details ICAO EPPO (POZ)
Name LAWICA
Region Poland
Timezone Europe/Warsaw (UTC+1.0)
Plans Departing 301
Arriving 215
Stats Elevation 308 ft / 94 m (AMSL)
Location 52.421566° 16.823549°
Runways 1
Magnetic Variation 4.736° E
Sunrise 2017-12-15 06:58:04 UTC / 2017-12-15 07:58:04 Local
Sunset 2017-12-15 14:40:24 UTC / 2017-12-15 15:40:24 Local
Advertisement - Login to hide

Runways

ID Width Length Bearing (true) Bearing (mag) Surface Threshold Offset Overrun Length
11 164 ft / 50 m 8,153 ft / 2,485 m 107.57° 102.83° Asphalt 0 ft / 0 m 0 ft / 0 m
29 164 ft / 50 m 8,153 ft / 2,485 m 287.59° 282.85° Asphalt 0 ft / 0 m 0 ft / 0 m

Approach Navaids

Runway Type Ident Frequency Range Bearing (true) Bearing (mag) Slope Elevation
29 Localiser POZ 110.30 MHz 18 nm / 33 km 287.57° 282.83° - 308 ft / 94 m (AMSL)
29 Glidescope POZ 110.30 MHz 10 nm / 19 km 287.58° 282.84° 3.00° 308 ft / 94 m (AMSL)
29 DME POZ 110.30 MHz 18 nm / 33 km - - - 331 ft / 101 m (AMSL)

Map

Weather


0- 5 10 15 20 25 30 35+ Temperature / ° C

Clouds and Precipitation
Forecast for 2017-12-16 00:00 UTC. Updated an hour ago

Ground ~20,000 ft ~40,000 ft Winds

METAR

EPPO 152200Z 23006KT 7000 OVC005 01/00 Q1000 R10/290195

TAF

TAF EPPO 151730Z 1518/1618 27008KT 5000 BR BKN015 TEMPO 1518/1610 3000 -SNRA BR BKN007 PROB40 1518/1606 1000 -SN BR BKN002

Frequencies

Tower 118.22 MHz POZNAN TWR
Warning: Do not use this data for real-world aviation or navigation. No guarantee of current accuracy is given.